sensor_id;sensor_type;location;lat;lon;timestamp;pressure;altitude;pressure_sealevel;temperature;humidity
216;BME280;64590;48.81286795;9.14184224;2023-05-19T00:01:30;98716.78;;;11.64;60.35
216;BME280;64590;48.81286795;9.14184224;2023-05-19T00:04:06;98746.31;;;11.82;60.35
216;BME280;64590;48.81286795;9.14184224;2023-05-19T00:06:35;98753.88;;;11.82;61.38
216;BME280;64590;48.81286795;9.14184224;2023-05-19T00:09:04;98751.94;;;12.00;61.03
216;BME280;64590;48.81286795;9.14184224;2023-05-19T00:11:35;98754.81;;;12.29;58.50
216;BME280;64590;48.81286795;9.14184224;2023-05-19T00:14:06;98708.13;;;11.76;59.66
216;BME280;64590;48.81286795;9.14184224;2023-05-19T00:16:35;98741.19;;;11.92;61.28
216;BME280;64590;48.81286795;9.14184224;2023-05-19T00:19:07;98709.63;;;11.63;62.12
216;BME280;64590;48.81286795;9.14184224;2023-05-19T00:21:36;98742.38;;;11.91;61.75
216;BME280;64590;48.81286795;9.14184224;2023-05-19T00:24:06;98750.72;;;11.91;61.65
216;BME280;64590;48.81286795;9.14184224;2023-05-19T00:26:34;98748.69;;;11.80;61.63
216;BME280;64590;48.81286795;9.14184224;2023-05-19T00:29:04;98750.22;;;11.74;61.57
216;BME280;64590;48.81286795;9.14184224;2023-05-19T00:31:33;98724.69;;;11.51;61.64
216;BME280;64590;48.81286795;9.14184224;2023-05-19T00:34:01;98741.50;;;11.79;60.30
216;BME280;64590;48.81286795;9.14184224;2023-05-19T00:36:32;98743.88;;;11.77;59.64
216;BME280;64590;48.81286795;9.14184224;2023-05-19T00:39:01;98744.59;;;11.60;60.37
216;BME280;64590;48.81286795;9.14184224;2023-05-19T00:41:29;98741.84;;;11.71;60.54
216;BME280;64590;48.81286795;9.14184224;2023-05-19T00:43:58;98734.84;;;11.98;59.96
216;BME280;64590;48.81286795;9.14184224;2023-05-19T00:46:26;98740.03;;;12.03;58.44
216;BME280;64590;48.81286795;9.14184224;2023-05-19T00:48:57;98732.41;;;11.86;59.57
216;BME280;64590;48.81286795;9.14184224;2023-05-19T00:51:27;98730.13;;;12.09;58.86
216;BME280;64590;48.81286795;9.14184224;2023-05-19T00:53:58;98735.69;;;12.13;59.09
216;BME280;64590;48.81286795;9.14184224;2023-05-19T00:56:27;98729.69;;;12.04;59.47
216;BME280;64590;48.81286795;9.14184224;2023-05-19T00:58:56;98732.81;;;11.88;60.94
216;BME280;64590;48.81286795;9.14184224;2023-05-19T01:01:25;98730.75;;;11.78;60.75
216;BME280;64590;48.81286795;9.14184224;2023-05-19T01:03:54;98728.38;;;11.76;60.19
216;BME280;64590;48.81286795;9.14184224;2023-05-19T01:06:24;98729.56;;;11.75;60.08
216;BME280;64590;48.81286795;9.14184224;2023-05-19T01:08:54;98729.63;;;11.86;61.45
216;BME280;64590;48.81286795;9.14184224;2023-05-19T01:11:28;98718.84;;;11.77;61.39
216;BME280;64590;48.81286795;9.14184224;2023-05-19T01:13:56;98720.91;;;11.84;60.31
216;BME280;64590;48.81286795;9.14184224;2023-05-19T01:16:30;98722.81;;;11.76;60.79
216;BME280;64590;48.81286795;9.14184224;2023-05-19T01:19:26;98683.81;;;11.62;61.02
216;BME280;64590;48.81286795;9.14184224;2023-05-19T01:22:13;98723.97;;;11.72;61.48
216;BME280;64590;48.81286795;9.14184224;2023-05-19T01:25:06;98723.97;;;11.65;62.22
216;BME280;64590;48.81286795;9.14184224;2023-05-19T01:28:04;98737.88;;;11.65;63.52
216;BME280;64590;48.81286795;9.14184224;2023-05-19T01:30:47;98738.22;;;11.59;64.25
216;BME280;64590;48.81286795;9.14184224;2023-05-19T01:33:21;98744.91;;;11.44;64.33
216;BME280;64590;48.81286795;9.14184224;2023-05-19T01:35:52;98720.50;;;11.13;65.26
216;BME280;64590;48.81286795;9.14184224;2023-05-19T01:38:24;98687.72;;;10.78;66.54
216;BME280;64590;48.81286795;9.14184224;2023-05-19T01:40:53;98743.59;;;11.24;65.57
216;BME280;64590;48.81286795;9.14184224;2023-05-19T01:43:24;98740.03;;;11.27;65.05
216;BME280;64590;48.81286795;9.14184224;2023-05-19T01:45:56;98732.81;;;11.19;65.28
216;BME280;64590;48.81286795;9.14184224;2023-05-19T01:48:26;98671.47;;;10.83;65.21
216;BME280;64590;48.81286795;9.14184224;2023-05-19T01:50:56;98737.63;;;11.25;65.28
216;BME280;64590;48.81286795;9.14184224;2023-05-19T01:53:25;98741.28;;;11.37;65.75
216;BME280;64590;48.81286795;9.14184224;2023-05-19T01:55:54;98742.06;;;11.37;65.42
216;BME280;64590;48.81286795;9.14184224;2023-05-19T01:58:31;98751.94;;;11.24;66.01
216;BME280;64590;48.81286795;9.14184224;2023-05-19T02:01:11;98739.63;;;11.25;66.43
216;BME280;64590;48.81286795;9.14184224;2023-05-19T02:04:01;98732.53;;;11.31;66.37
216;BME280;64590;48.81286795;9.14184224;2023-05-19T02:06:40;98734.81;;;11.18;66.73
216;BME280;64590;48.81286795;9.14184224;2023-05-19T02:09:14;98738.31;;;11.04;66.66
216;BME280;64590;48.81286795;9.14184224;2023-05-19T02:11:51;98737.38;;;10.86;67.63
216;BME280;64590;48.81286795;9.14184224;2023-05-19T02:14:29;98742.81;;;10.75;68.01
216;BME280;64590;48.81286795;9.14184224;2023-05-19T02:17:03;98736.50;;;10.79;68.10
216;BME280;64590;48.81286795;9.14184224;2023-05-19T02:19:36;98718.75;;;10.90;67.62
216;BME280;64590;48.81286795;9.14184224;2023-05-19T02:22:05;98738.19;;;10.90;67.63
216;BME280;64590;48.81286795;9.14184224;2023-05-19T02:24:34;98735.41;;;10.90;67.72
216;BME280;64590;48.81286795;9.14184224;2023-05-19T02:27:03;98737.84;;;10.95;67.52
216;BME280;64590;48.81286795;9.14184224;2023-05-19T02:29:32;98747.91;;;11.18;67.85
216;BME280;64590;48.81286795;9.14184224;2023-05-19T02:32:07;98743.69;;;10.83;67.41
216;BME280;64590;48.81286795;9.14184224;2023-05-19T02:34:36;98741.84;;;11.01;67.36
216;BME280;64590;48.81286795;9.14184224;2023-05-19T02:37:04;98747.09;;;11.14;67.94
216;BME280;64590;48.81286795;9.14184224;2023-05-19T02:39:32;98742.22;;;11.00;68.65
216;BME280;64590;48.81286795;9.14184224;2023-05-19T02:42:01;98744.84;;;10.79;68.44
216;BME280;64590;48.81286795;9.14184224;2023-05-19T02:44:30;98747.66;;;10.86;68.63
216;BME280;64590;48.81286795;9.14184224;2023-05-19T02:46:58;98735.91;;;10.55;69.21
216;BME280;64590;48.81286795;9.14184224;2023-05-19T02:49:29;98738.59;;;10.44;69.65
216;BME280;64590;48.81286795;9.14184224;2023-05-19T02:52:00;98743.91;;;10.60;69.28
216;BME280;64590;48.81286795;9.14184224;2023-05-19T02:54:29;98728.00;;;10.57;69.42
216;BME280;64590;48.81286795;9.14184224;2023-05-19T02:56:58;98697.69;;;10.38;69.68
216;BME280;64590;48.81286795;9.14184224;2023-05-19T02:59:26;98730.38;;;10.59;69.23
216;BME280;64590;48.81286795;9.14184224;2023-05-19T03:01:58;98721.84;;;10.78;69.33
216;BME280;64590;48.81286795;9.14184224;2023-05-19T03:04:29;98725.63;;;10.59;69.12
216;BME280;64590;48.81286795;9.14184224;2023-05-19T03:07:06;98704.28;;;10.67;68.72
216;BME280;64590;48.81286795;9.14184224;2023-05-19T03:09:38;98695.72;;;10.42;69.22
216;BME280;64590;48.81286795;9.14184224;2023-05-19T03:12:07;98726.69;;;10.44;70.09
216;BME280;64590;48.81286795;9.14184224;2023-05-19T03:14:36;98720.47;;;10.58;69.44
216;BME280;64590;48.81286795;9.14184224;2023-05-19T03:17:04;98718.84;;;10.16;71.08
216;BME280;64590;48.81286795;9.14184224;2023-05-19T03:19:37;98732.69;;;10.12;71.21
216;BME280;64590;48.81286795;9.14184224;2023-05-19T03:22:06;98718.25;;;10.33;70.78
216;BME280;64590;48.81286795;9.14184224;2023-05-19T03:24:35;98715.13;;;10.35;70.45
216;BME280;64590;48.81286795;9.14184224;2023-05-19T03:27:03;98716.09;;;10.57;70.11
216;BME280;64590;48.81286795;9.14184224;2023-05-19T03:29:32;98726.09;;;10.68;70.14
216;BME280;64590;48.81286795;9.14184224;2023-05-19T03:32:42;98705.22;;;10.37;70.33
216;BME280;64590;48.81286795;9.14184224;2023-05-19T03:35:13;98717.72;;;10.20;71.11
216;BME280;64590;48.81286795;9.14184224;2023-05-19T03:37:42;98726.16;;;9.98;72.04
216;BME280;64590;48.81286795;9.14184224;2023-05-19T03:40:11;98724.06;;;9.87;72.99
216;BME280;64590;48.81286795;9.14184224;2023-05-19T03:42:42;98726.59;;;10.00;72.57
216;BME280;64590;48.81286795;9.14184224;2023-05-19T03:45:14;98722.50;;;9.90;72.42
216;BME280;64590;48.81286795;9.14184224;2023-05-19T03:47:45;98726.66;;;10.07;72.40
216;BME280;64590;48.81286795;9.14184224;2023-05-19T03:50:48;98720.53;;;10.24;72.35
216;BME280;64590;48.81286795;9.14184224;2023-05-19T03:53:24;98725.41;;;10.34;71.65
216;BME280;64590;48.81286795;9.14184224;2023-05-19T03:55:55;98716.22;;;10.27;71.84
216;BME280;64590;48.81286795;9.14184224;2023-05-19T03:58:23;98730.84;;;10.24;72.40
216;BME280;64590;48.81286795;9.14184224;2023-05-19T04:00:54;98736.25;;;10.13;72.69
216;BME280;64590;48.81286795;9.14184224;2023-05-19T04:03:22;98738.16;;;10.05;73.11
216;BME280;64590;48.81286795;9.14184224;2023-05-19T04:05:55;98740.50;;;10.03;72.75
216;BME280;64590;48.81286795;9.14184224;2023-05-19T04:08:24;98738.03;;;9.95;72.75
216;BME280;64590;48.81286795;9.14184224;2023-05-19T04:10:52;98739.78;;;9.76;73.74
216;BME280;64590;48.81286795;9.14184224;2023-05-19T04:13:21;98743.66;;;10.02;73.16
216;BME280;64590;48.81286795;9.14184224;2023-05-19T04:15:50;98750.91;;;10.13;72.86
216;BME280;64590;48.81286795;9.14184224;2023-05-19T04:18:19;98742.78;;;9.94;72.99
216;BME280;64590;48.81286795;9.14184224;2023-05-19T04:20:47;98744.16;;;9.77;73.71
216;BME280;64590;48.81286795;9.14184224;2023-05-19T04:23:18;98744.19;;;9.81;73.82
216;BME280;64590;48.81286795;9.14184224;2023-05-19T04:25:47;98750.66;;;9.58;74.99
216;BME280;64590;48.81286795;9.14184224;2023-05-19T04:28:17;98738.28;;;9.82;74.35
216;BME280;64590;48.81286795;9.14184224;2023-05-19T04:30:46;98747.41;;;9.83;74.93
216;BME280;64590;48.81286795;9.14184224;2023-05-19T04:33:15;98732.09;;;9.96;74.00
216;BME280;64590;48.81286795;9.14184224;2023-05-19T04:35:46;98709.22;;;9.69;74.05
216;BME280;64590;48.81286795;9.14184224;2023-05-19T04:38:17;98752.13;;;10.16;73.70
216;BME280;64590;48.81286795;9.14184224;2023-05-19T04:40:47;98751.97;;;10.02;73.16
216;BME280;64590;48.81286795;9.14184224;2023-05-19T04:43:16;98749.53;;;9.97;73.16
216;BME280;64590;48.81286795;9.14184224;2023-05-19T04:45:49;98749.88;;;9.91;74.00
216;BME280;64590;48.81286795;9.14184224;2023-05-19T04:48:20;98738.63;;;10.11;72.81
216;BME280;64590;48.81286795;9.14184224;2023-05-19T04:50:48;98752.88;;;10.09;72.65
216;BME280;64590;48.81286795;9.14184224;2023-05-19T04:53:20;98757.94;;;10.37;72.53
216;BME280;64590;48.81286795;9.14184224;2023-05-19T04:55:50;98755.34;;;10.55;71.00
216;BME280;64590;48.81286795;9.14184224;2023-05-19T04:58:19;98752.00;;;10.39;70.78
216;BME280;64590;48.81286795;9.14184224;2023-05-19T05:00:50;98754.38;;;10.81;69.08
216;BME280;64590;48.81286795;9.14184224;2023-05-19T05:03:21;98756.53;;;10.58;70.76
216;BME280;64590;48.81286795;9.14184224;2023-05-19T05:05:50;98753.19;;;10.82;69.85
216;BME280;64590;48.81286795;9.14184224;2023-05-19T05:08:21;98763.66;;;10.99;68.98
216;BME280;64590;48.81286795;9.14184224;2023-05-19T05:10:53;98764.44;;;11.00;68.77
216;BME280;64590;48.81286795;9.14184224;2023-05-19T05:13:22;98764.66;;;10.77;68.19
216;BME280;64590;48.81286795;9.14184224;2023-05-19T05:15:52;98760.41;;;10.94;68.20
216;BME280;64590;48.81286795;9.14184224;2023-05-19T05:18:25;98755.72;;;10.98;68.26
216;BME280;64590;48.81286795;9.14184224;2023-05-19T05:20:54;98745.38;;;10.95;67.92
216;BME280;64590;48.81286795;9.14184224;2023-05-19T05:23:26;98747.31;;;10.94;67.84
216;BME280;64590;48.81286795;9.14184224;2023-05-19T05:25:56;98749.56;;;11.26;66.39
216;BME280;64590;48.81286795;9.14184224;2023-05-19T05:28:25;98748.63;;;11.08;67.24
216;BME280;64590;48.81286795;9.14184224;2023-05-19T05:30:53;98748.75;;;11.25;67.61
216;BME280;64590;48.81286795;9.14184224;2023-05-19T05:33:22;98752.53;;;11.58;66.33
216;BME280;64590;48.81286795;9.14184224;2023-05-19T05:35:51;98743.69;;;11.45;65.91
216;BME280;64590;48.81286795;9.14184224;2023-05-19T05:38:25;98746.91;;;11.51;65.26
216;BME280;64590;48.81286795;9.14184224;2023-05-19T05:40:54;98749.03;;;11.75;66.22
216;BME280;64590;48.81286795;9.14184224;2023-05-19T05:43:25;98741.56;;;11.83;64.75
216;BME280;64590;48.81286795;9.14184224;2023-05-19T05:45:59;98747.81;;;11.69;63.26
216;BME280;64590;48.81286795;9.14184224;2023-05-19T05:48:28;98739.56;;;11.83;64.02
216;BME280;64590;48.81286795;9.14184224;2023-05-19T05:50:58;98755.00;;;11.77;64.04
216;BME280;64590;48.81286795;9.14184224;2023-05-19T05:53:36;98750.63;;;11.73;64.75
216;BME280;64590;48.81286795;9.14184224;2023-05-19T05:56:11;98754.13;;;11.63;63.95
216;BME280;64590;48.81286795;9.14184224;2023-05-19T05:58:47;98746.31;;;11.86;63.60
216;BME280;64590;48.81286795;9.14184224;2023-05-19T06:01:16;98751.59;;;12.12;63.06
216;BME280;64590;48.81286795;9.14184224;2023-05-19T06:03:45;98722.09;;;11.90;63.03
216;BME280;64590;48.81286795;9.14184224;2023-05-19T06:06:18;98755.47;;;11.90;63.22
216;BME280;64590;48.81286795;9.14184224;2023-05-19T06:08:49;98750.00;;;12.08;63.69
216;BME280;64590;48.81286795;9.14184224;2023-05-19T06:11:18;98750.78;;;12.12;63.45
216;BME280;64590;48.81286795;9.14184224;2023-05-19T06:13:47;98748.44;;;12.18;63.13
216;BME280;64590;48.81286795;9.14184224;2023-05-19T06:16:32;98746.44;;;12.22;62.80
216;BME280;64590;48.81286795;9.14184224;2023-05-19T06:19:00;98724.91;;;11.97;62.96
216;BME280;64590;48.81286795;9.14184224;2023-05-19T06:21:29;98743.66;;;12.22;62.79
216;BME280;64590;48.81286795;9.14184224;2023-05-19T06:24:00;98742.09;;;12.42;63.43
216;BME280;64590;48.81286795;9.14184224;2023-05-19T06:26:28;98740.53;;;12.59;63.29
216;BME280;64590;48.81286795;9.14184224;2023-05-19T06:28:57;98734.97;;;12.55;62.81
216;BME280;64590;48.81286795;9.14184224;2023-05-19T06:31:27;98733.78;;;12.81;62.12
216;BME280;64590;48.81286795;9.14184224;2023-05-19T06:34:01;98731.81;;;12.74;62.38
216;BME280;64590;48.81286795;9.14184224;2023-05-19T06:36:32;98738.59;;;12.77;61.78
216;BME280;64590;48.81286795;9.14184224;2023-05-19T06:39:04;98728.22;;;12.67;62.01
216;BME280;64590;48.81286795;9.14184224;2023-05-19T06:41:32;98735.41;;;12.86;61.24
216;BME280;64590;48.81286795;9.14184224;2023-05-19T06:44:00;98711.50;;;12.67;61.91
216;BME280;64590;48.81286795;9.14184224;2023-05-19T06:46:32;98737.38;;;12.74;61.92
216;BME280;64590;48.81286795;9.14184224;2023-05-19T06:49:00;98735.78;;;12.70;61.85
216;BME280;64590;48.81286795;9.14184224;2023-05-19T06:51:33;98726.22;;;12.82;63.01
216;BME280;64590;48.81286795;9.14184224;2023-05-19T06:54:04;98731.00;;;12.88;62.58
216;BME280;64590;48.81286795;9.14184224;2023-05-19T06:56:35;98727.41;;;12.91;62.63
216;BME280;64590;48.81286795;9.14184224;2023-05-19T06:59:03;98726.25;;;12.96;62.75
216;BME280;64590;48.81286795;9.14184224;2023-05-19T07:01:35;98688.41;;;12.91;62.84
216;BME280;64590;48.81286795;9.14184224;2023-05-19T07:04:04;98738.16;;;13.28;62.22
216;BME280;64590;48.81286795;9.14184224;2023-05-19T07:06:32;98738.16;;;13.11;62.55
216;BME280;64590;48.81286795;9.14184224;2023-05-19T07:09:04;98732.56;;;13.11;61.51
216;BME280;64590;48.81286795;9.14184224;2023-05-19T07:11:35;98729.75;;;13.50;62.32
216;BME280;64590;48.81286795;9.14184224;2023-05-19T07:14:04;98729.72;;;13.61;62.31
216;BME280;64590;48.81286795;9.14184224;2023-05-19T07:16:32;98733.34;;;13.50;61.49
216;BME280;64590;48.81286795;9.14184224;2023-05-19T07:19:01;98732.88;;;13.73;61.19
216;BME280;64590;48.81286795;9.14184224;2023-05-19T07:21:29;98734.94;;;13.44;61.23
216;BME280;64590;48.81286795;9.14184224;2023-05-19T07:23:57;98693.03;;;13.66;60.55
216;BME280;64590;48.81286795;9.14184224;2023-05-19T07:26:33;98733.66;;;13.77;61.47
216;BME280;64590;48.81286795;9.14184224;2023-05-19T07:29:01;98728.84;;;13.81;60.87
216;BME280;64590;48.81286795;9.14184224;2023-05-19T07:31:32;98719.31;;;13.72;59.98
216;BME280;64590;48.81286795;9.14184224;2023-05-19T07:34:02;98730.47;;;13.72;59.66
216;BME280;64590;48.81286795;9.14184224;2023-05-19T07:36:30;98683.94;;;13.51;59.31
216;BME280;64590;48.81286795;9.14184224;2023-05-19T07:38:58;98722.81;;;13.94;59.92
216;BME280;64590;48.81286795;9.14184224;2023-05-19T07:41:27;98722.53;;;13.67;61.07
216;BME280;64590;48.81286795;9.14184224;2023-05-19T07:43:58;98724.06;;;13.78;59.99
216;BME280;64590;48.81286795;9.14184224;2023-05-19T07:46:31;98726.44;;;13.87;60.07
216;BME280;64590;48.81286795;9.14184224;2023-05-19T07:49:03;98715.59;;;14.03;58.94
216;BME280;64590;48.81286795;9.14184224;2023-05-19T07:51:31;98729.16;;;13.98;58.57
216;BME280;64590;48.81286795;9.14184224;2023-05-19T19:46:58;67757.81;;;-145.31;100.00
216;BME280;64590;48.81286795;9.14184224;2023-05-19T19:49:30;67757.81;;;-145.31;100.00
216;BME280;64590;48.81286795;9.14184224;2023-05-19T19:51:59;67757.81;;;-145.31;100.00
216;BME280;64590;48.81286795;9.14184224;2023-05-19T19:54:27;67757.81;;;-145.31;100.00
216;BME280;64590;48.81286795;9.14184224;2023-05-19T19:56:55;67757.81;;;-145.31;100.00
216;BME280;64590;48.81286795;9.14184224;2023-05-19T19:59:24;67757.81;;;-145.31;100.00
216;BME280;64590;48.81286795;9.14184224;2023-05-19T20:01:53;67757.81;;;-145.31;100.00
216;BME280;64590;48.81286795;9.14184224;2023-05-19T20:04:24;67757.81;;;-145.31;100.00
216;BME280;64590;48.81286795;9.14184224;2023-05-19T20:06:53;67757.81;;;-145.31;100.00
216;BME280;64590;48.81286795;9.14184224;2023-05-19T20:09:24;67757.81;;;-145.31;100.00
216;BME280;64590;48.81286795;9.14184224;2023-05-19T20:11:53;67757.81;;;-145.31;100.00
216;BME280;64590;48.81286795;9.14184224;2023-05-19T20:14:21;67757.81;;;-145.31;100.00
216;BME280;64590;48.81286795;9.14184224;2023-05-19T20:16:50;67757.81;;;-145.31;100.00
216;BME280;64590;48.81286795;9.14184224;2023-05-19T20:19:18;67757.81;;;-145.31;100.00
216;BME280;64590;48.81286795;9.14184224;2023-05-19T20:21:52;67757.81;;;-145.31;100.00
216;BME280;64590;48.81286795;9.14184224;2023-05-19T20:24:23;67757.81;;;-145.31;100.00
216;BME280;64590;48.81286795;9.14184224;2023-05-19T20:26:52;67757.81;;;-145.31;100.00
216;BME280;64590;48.81286795;9.14184224;2023-05-19T20:29:20;67757.81;;;-145.31;100.00
216;BME280;64590;48.81286795;9.14184224;2023-05-19T20:31:51;67757.81;;;-145.31;100.00
216;BME280;64590;48.81286795;9.14184224;2023-05-19T20:34:21;67757.81;;;-145.31;100.00
216;BME280;64590;48.81286795;9.14184224;2023-05-19T20:36:52;67757.81;;;-145.31;100.00
216;BME280;64590;48.81286795;9.14184224;2023-05-19T20:39:21;67757.81;;;-145.31;100.00
216;BME280;64590;48.81286795;9.14184224;2023-05-19T20:41:49;67757.81;;;-145.31;100.00
216;BME280;64590;48.81286795;9.14184224;2023-05-19T20:44:17;67757.81;;;-145.31;100.00
216;BME280;64590;48.81286795;9.14184224;2023-05-19T20:46:46;67757.81;;;-145.31;100.00
216;BME280;64590;48.81286795;9.14184224;2023-05-19T20:49:14;67757.81;;;-145.31;100.00
216;BME280;64590;48.81286795;9.14184224;2023-05-19T20:51:43;67757.81;;;-145.31;100.00
216;BME280;64590;48.81286795;9.14184224;2023-05-19T20:54:14;67757.81;;;-145.31;100.00
216;BME280;64590;48.81286795;9.14184224;2023-05-19T20:56:44;67757.81;;;-145.31;100.00
216;BME280;64590;48.81286795;9.14184224;2023-05-19T20:59:12;67757.81;;;-145.31;100.00
216;BME280;64590;48.81286795;9.14184224;2023-05-19T21:01:40;67757.81;;;-145.31;100.00
216;BME280;64590;48.81286795;9.14184224;2023-05-19T21:04:09;67757.81;;;-145.31;100.00
216;BME280;64590;48.81286795;9.14184224;2023-05-19T21:06:39;67757.81;;;-145.31;100.00
216;BME280;64590;48.81286795;9.14184224;2023-05-19T21:09:08;67757.81;;;-145.31;100.00
216;BME280;64590;48.81286795;9.14184224;2023-05-19T21:11:39;67757.81;;;-145.31;100.00
216;BME280;64590;48.81286795;9.14184224;2023-05-19T21:14:07;67757.81;;;-145.31;100.00
216;BME280;64590;48.81286795;9.14184224;2023-05-19T21:16:39;67757.81;;;-145.31;100.00
216;BME280;64590;48.81286795;9.14184224;2023-05-19T21:19:07;67757.81;;;-145.31;100.00
216;BME280;64590;48.81286795;9.14184224;2023-05-19T21:21:36;67757.81;;;-145.31;100.00
216;BME280;64590;48.81286795;9.14184224;2023-05-19T21:24:07;67757.81;;;-145.31;100.00
216;BME280;64590;48.81286795;9.14184224;2023-05-19T21:26:42;67757.81;;;-145.31;100.00
216;BME280;64590;48.81286795;9.14184224;2023-05-19T21:29:10;67757.81;;;-145.31;100.00
216;BME280;64590;48.81286795;9.14184224;2023-05-19T21:31:39;67757.81;;;-145.31;100.00
216;BME280;64590;48.81286795;9.14184224;2023-05-19T21:34:09;67757.81;;;-145.31;100.00
216;BME280;64590;48.81286795;9.14184224;2023-05-19T21:36:38;67757.81;;;-145.31;100.00
216;BME280;64590;48.81286795;9.14184224;2023-05-19T21:39:06;67757.81;;;-145.31;100.00
216;BME280;64590;48.81286795;9.14184224;2023-05-19T21:41:35;67757.81;;;-145.31;100.00
216;BME280;64590;48.81286795;9.14184224;2023-05-19T21:44:06;67757.81;;;-145.31;100.00
216;BME280;64590;48.81286795;9.14184224;2023-05-19T21:46:34;67757.81;;;-145.31;100.00
216;BME280;64590;48.81286795;9.14184224;2023-05-19T21:49:03;67757.81;;;-145.31;100.00
216;BME280;64590;48.81286795;9.14184224;2023-05-19T21:51:31;67757.81;;;-145.31;100.00
216;BME280;64590;48.81286795;9.14184224;2023-05-19T21:54:00;67757.81;;;-145.31;100.00
216;BME280;64590;48.81286795;9.14184224;2023-05-19T21:56:29;67757.81;;;-145.31;100.00
216;BME280;64590;48.81286795;9.14184224;2023-05-19T21:58:57;67757.81;;;-145.31;100.00
216;BME280;64590;48.81286795;9.14184224;2023-05-19T22:01:30;67757.81;;;-145.31;100.00
216;BME280;64590;48.81286795;9.14184224;2023-05-19T22:03:59;67757.81;;;-145.31;100.00
216;BME280;64590;48.81286795;9.14184224;2023-05-19T22:06:27;67757.81;;;-145.31;100.00
216;BME280;64590;48.81286795;9.14184224;2023-05-19T22:08:55;67757.81;;;-145.31;100.00
216;BME280;64590;48.81286795;9.14184224;2023-05-19T22:11:25;67757.81;;;-145.31;100.00
216;BME280;64590;48.81286795;9.14184224;2023-05-19T22:13:53;67757.81;;;-145.31;100.00
216;BME280;64590;48.81286795;9.14184224;2023-05-19T22:16:22;67757.81;;;-145.31;100.00
216;BME280;64590;48.81286795;9.14184224;2023-05-19T22:18:55;67757.81;;;-145.31;100.00
216;BME280;64590;48.81286795;9.14184224;2023-05-19T22:21:24;67757.81;;;-145.31;100.00
216;BME280;64590;48.81286795;9.14184224;2023-05-19T22:23:52;67757.81;;;-145.31;100.00
216;BME280;64590;48.81286795;9.14184224;2023-05-19T22:26:23;67757.81;;;-145.31;100.00
216;BME280;64590;48.81286795;9.14184224;2023-05-19T22:28:51;67757.81;;;-145.31;100.00
216;BME280;64590;48.81286795;9.14184224;2023-05-19T22:31:20;67757.81;;;-145.31;100.00
216;BME280;64590;48.81286795;9.14184224;2023-05-19T22:33:48;67757.81;;;-145.31;100.00
216;BME280;64590;48.81286795;9.14184224;2023-05-19T22:36:19;67757.81;;;-145.31;100.00
216;BME280;64590;48.81286795;9.14184224;2023-05-19T22:38:48;67757.81;;;-145.31;100.00
216;BME280;64590;48.81286795;9.14184224;2023-05-19T22:41:16;67757.81;;;-145.31;100.00
216;BME280;64590;48.81286795;9.14184224;2023-05-19T22:43:46;67757.81;;;-145.31;100.00
216;BME280;64590;48.81286795;9.14184224;2023-05-19T22:46:15;67757.81;;;-145.31;100.00
216;BME280;64590;48.81286795;9.14184224;2023-05-19T22:48:43;67757.81;;;-145.31;100.00
216;BME280;64590;48.81286795;9.14184224;2023-05-19T22:51:11;67757.81;;;-145.31;100.00
216;BME280;64590;48.81286795;9.14184224;2023-05-19T22:53:45;67757.81;;;-145.31;100.00
216;BME280;64590;48.81286795;9.14184224;2023-05-19T22:56:15;67757.81;;;-145.31;100.00
216;BME280;64590;48.81286795;9.14184224;2023-05-19T22:58:43;67757.81;;;-145.31;100.00
216;BME280;64590;48.81286795;9.14184224;2023-05-19T23:01:12;67757.81;;;-145.31;100.00
216;BME280;64590;48.81286795;9.14184224;2023-05-19T23:03:41;67757.81;;;-145.31;100.00
216;BME280;64590;48.81286795;9.14184224;2023-05-19T23:06:10;67757.81;;;-145.31;100.00
216;BME280;64590;48.81286795;9.14184224;2023-05-19T23:08:38;67757.81;;;-145.31;100.00
216;BME280;64590;48.81286795;9.14184224;2023-05-19T23:11:12;67757.81;;;-145.31;100.00
216;BME280;64590;48.81286795;9.14184224;2023-05-19T23:13:41;67757.81;;;-145.31;100.00
216;BME280;64590;48.81286795;9.14184224;2023-05-19T23:16:12;67757.81;;;-145.31;100.00
216;BME280;64590;48.81286795;9.14184224;2023-05-19T23:18:40;67757.81;;;-145.31;100.00
216;BME280;64590;48.81286795;9.14184224;2023-05-19T23:21:09;67757.81;;;-145.31;100.00
216;BME280;64590;48.81286795;9.14184224;2023-05-19T23:23:40;67757.81;;;-145.31;100.00
216;BME280;64590;48.81286795;9.14184224;2023-05-19T23:26:08;67757.81;;;-145.31;100.00
216;BME280;64590;48.81286795;9.14184224;2023-05-19T23:28:40;67757.81;;;-145.31;100.00
216;BME280;64590;48.81286795;9.14184224;2023-05-19T23:31:09;67757.81;;;-145.31;100.00
216;BME280;64590;48.81286795;9.14184224;2023-05-19T23:33:37;67757.81;;;-145.31;100.00
216;BME280;64590;48.81286795;9.14184224;2023-05-19T23:36:07;67757.81;;;-145.31;100.00
216;BME280;64590;48.81286795;9.14184224;2023-05-19T23:38:39;67757.81;;;-145.31;100.00
216;BME280;64590;48.81286795;9.14184224;2023-05-19T23:41:07;67757.81;;;-145.31;100.00
216;BME280;64590;48.81286795;9.14184224;2023-05-19T23:43:36;67757.81;;;-145.31;100.00
216;BME280;64590;48.81286795;9.14184224;2023-05-19T23:46:07;67757.81;;;-145.31;100.00